Time;durP1;ratioP1;P1;durP2;ratioP2;P2;SDS_P1;SDS_P2;PMS_P1;PMS_P2;Temp;Humidity;BMP_temperature;BMP_pressure;BME280_temperature;BME280_humidity;BME280_pressure;Samples;Min_cycle;Max_cycle;Signal;HPM_P1;HPM_P2
2022/09/27 00:01:01;;;;;;;3.75;0.40;;;10.70;99.90;;;;;;4977225;28;20372;-79
2022/09/27 00:03:28;;;;;;;4.28;0.30;;;10.60;99.90;;;;;;4975908;28;20050;-81
2022/09/27 00:06:06;;;;;;;3.47;0.30;;;10.80;99.90;;;;;;4975232;28;20051;-83
2022/09/27 00:08:34;;;;;;;2.47;0.30;;;10.60;99.90;;;;;;4977833;28;20101;-83
2022/09/27 00:11:06;;;;;;;2.15;0.20;;;10.50;99.90;;;;;;4976045;28;20098;-84
2022/09/27 00:13:32;;;;;;;1.13;0.20;;;10.60;99.90;;;;;;4976851;28;20448;-85
2022/09/27 00:19:38;;;;;;;2.72;0.30;;;10.50;99.90;;;;;;4976698;28;20509;-83
2022/09/27 00:22:04;;;;;;;3.13;0.25;;;10.40;99.90;;;;;;4975813;28;20054;-83
2022/09/27 00:34:30;;;;;;;1.92;0.20;;;10.40;99.90;;;;;;5064905;23;20329;-72
2022/09/27 00:36:55;;;;;;;3.33;0.30;;;10.50;99.90;;;;;;4994225;28;20050;-72
2022/09/27 00:39:21;;;;;;;2.10;0.22;;;10.50;99.90;;;;;;4995577;28;20553;-72
2022/09/27 00:41:47;;;;;;;1.10;0.30;;;10.40;99.90;;;;;;4995716;28;20077;-71
2022/09/27 00:44:28;;;;;;;2.22;0.30;;;10.30;99.90;;;;;;4995586;28;20113;-72
2022/09/27 00:47:12;;;;;;;3.35;0.45;;;10.50;99.90;;;;;;4978527;28;20160;-72
2022/09/27 00:49:53;;;;;;;1.23;0.22;;;10.40;99.90;;;;;;4995685;28;20129;-72
2022/09/27 00:52:26;;;;;;;3.75;0.22;;;10.40;99.90;;;;;;4995841;28;20074;-72
2022/09/27 00:54:57;;;;;;;2.90;0.30;;;10.60;99.90;;;;;;4994532;28;20090;-71
2022/09/27 00:57:23;;;;;;;2.53;0.32;;;10.50;99.90;;;;;;4995308;28;20054;-71
2022/09/27 01:00:08;;;;;;;3.47;0.32;;;10.40;99.90;;;;;;4994339;28;20406;-71
2022/09/27 01:02:35;;;;;;;2.28;0.30;;;10.40;99.90;;;;;;4994195;28;20034;-71
2022/09/27 01:05:02;;;;;;;3.42;0.30;;;10.40;99.90;;;;;;4992040;28;20046;-71
2022/09/27 01:07:27;;;;;;;4.25;0.30;;;10.50;99.90;;;;;;4977955;28;20050;-70
2022/09/27 01:09:53;;;;;;;1.77;0.30;;;10.30;99.90;;;;;;4995174;28;20061;-70
2022/09/27 01:12:34;;;;;;;1.85;0.30;;;10.30;99.90;;;;;;4994519;28;20046;-70
2022/09/27 01:15:45;;;;;;;0.47;0.20;;;10.50;99.90;;;;;;4995109;28;20050;-70
2022/09/27 01:18:32;;;;;;;1.50;0.20;;;10.20;99.90;;;;;;4994839;28;20069;-71
2022/09/27 01:21:31;;;;;;;4.47;0.30;;;10.40;99.90;;;;;;4994387;28;20178;-71
2022/09/27 01:24:22;;;;;;;2.95;0.30;;;10.30;99.90;;;;;;4995071;28;20402;-71
2022/09/27 01:26:54;;;;;;;1.77;0.20;;;10.20;99.90;;;;;;4994262;28;20046;-71
2022/09/27 01:29:31;;;;;;;4.25;0.30;;;10.20;99.90;;;;;;4994884;28;20056;-71
2022/09/27 01:32:14;;;;;;;1.50;0.20;;;10.30;99.90;;;;;;4994867;28;20042;-71
2022/09/27 01:34:51;;;;;;;1.35;0.20;;;10.40;99.90;;;;;;4993214;28;20054;-71
2022/09/27 01:37:17;;;;;;;4.50;0.30;;;10.40;99.90;;;;;;4995018;28;20469;-72
2022/09/27 01:39:56;;;;;;;4.05;0.30;;;10.20;99.90;;;;;;4994696;28;20137;-70
2022/09/27 01:42:40;;;;;;;2.03;0.20;;;10.30;99.90;;;;;;4993666;28;20049;-71
2022/09/27 01:45:16;;;;;;;0.93;0.20;;;10.40;99.90;;;;;;4994589;28;20120;-72
2022/09/27 01:47:48;;;;;;;2.20;0.40;;;10.40;99.90;;;;;;4994736;28;20038;-71
2022/09/27 01:50:38;;;;;;;3.03;0.30;;;10.20;99.90;;;;;;4993408;28;20046;-71
2022/09/27 01:53:32;;;;;;;1.38;0.30;;;10.30;99.90;;;;;;4994285;28;20506;-71
2022/09/27 01:56:02;;;;;;;3.63;0.30;;;10.20;99.90;;;;;;4984073;28;20061;-71
2022/09/27 01:58:40;;;;;;;0.98;0.28;;;10.20;99.90;;;;;;4994477;28;20057;-71
2022/09/27 02:01:08;;;;;;;1.67;0.20;;;10.20;99.90;;;;;;4994378;28;20069;-71
2022/09/27 02:03:41;;;;;;;2.80;0.35;;;10.50;99.90;;;;;;4993710;28;20173;-71
2022/09/27 02:06:36;;;;;;;0.95;0.30;;;10.10;99.90;;;;;;4994326;28;20082;-72
2022/09/27 02:09:09;;;;;;;3.15;0.57;;;10.20;99.90;;;;;;4994447;28;20138;-71
2022/09/27 02:11:37;;;;;;;2.63;0.40;;;10.20;99.90;;;;;;4994521;28;20453;-71
2022/09/27 02:14:21;;;;;;;2.55;0.50;;;10.20;99.90;;;;;;4994113;28;20042;-71
2022/09/27 02:16:50;;;;;;;3.83;0.40;;;10.20;99.90;;;;;;4993049;28;20050;-72
2022/09/27 02:19:44;;;;;;;2.75;0.43;;;10.20;99.90;;;;;;4992916;28;20054;-71
2022/09/27 02:22:37;;;;;;;3.97;0.50;;;10.20;99.90;;;;;;4977083;28;20046;-71
2022/09/27 02:25:17;;;;;;;;;;;10.20;99.90;;;;;;4994215;28;20046;-71
2022/09/27 02:27:46;;;;;;;2.20;0.32;;;10.10;99.90;;;;;;4994316;28;20325;-69
2022/09/27 02:30:14;;;;;;;6.28;0.40;;;10.20;99.90;;;;;;5000216;28;20081;-72
2022/09/27 02:32:41;;;;;;;3.38;0.40;;;10.20;99.90;;;;;;4999697;28;20101;-70
2022/09/27 02:35:21;;;;;;;3.78;0.40;;;10.10;99.90;;;;;;4999678;28;20457;-70
2022/09/27 02:37:47;;;;;;;4.20;0.45;;;10.10;99.90;;;;;;5000698;28;20097;-71
2022/09/27 02:40:13;;;;;;;1.25;0.30;;;10.00;99.90;;;;;;5000515;28;20054;-70
2022/09/27 02:42:41;;;;;;;2.22;0.40;;;10.10;99.90;;;;;;4999489;28;20096;-70
2022/09/27 02:45:08;;;;;;;2.50;0.50;;;10.20;99.90;;;;;;5000509;28;20108;-70
2022/09/27 02:47:42;;;;;;;2.22;0.38;;;9.90;99.90;;;;;;5000477;28;20050;-71
2022/09/27 02:50:26;;;;;;;2.10;0.40;;;10.10;99.90;;;;;;5000159;28;20446;-69
2022/09/27 02:53:30;;;;;;;1.00;0.30;;;10.00;99.90;;;;;;4999505;28;20125;-70
2022/09/27 02:56:07;;;;;;;4.65;0.32;;;9.90;99.90;;;;;;4970143;28;20054;-70
2022/09/27 02:58:43;;;;;;;1.55;0.30;;;9.90;99.90;;;;;;4999076;28;20411;-71
2022/09/27 03:01:28;;;;;;;1.63;0.20;;;9.90;99.90;;;;;;4983104;28;20113;-70
2022/09/27 03:04:17;;;;;;;1.48;0.20;;;9.90;99.90;;;;;;4998449;28;20056;-71
2022/09/27 03:06:46;;;;;;;2.08;0.20;;;9.90;99.90;;;;;;4999007;28;20105;-71
2022/09/27 03:09:23;;;;;;;0.85;0.22;;;10.00;99.90;;;;;;5000395;28;20125;-70
2022/09/27 03:11:49;;;;;;;2.80;0.25;;;10.00;99.90;;;;;;4999566;28;20046;-70
2022/09/27 03:14:15;;;;;;;2.97;0.30;;;9.90;99.90;;;;;;5000044;28;20512;-71
2022/09/27 03:16:41;;;;;;;1.55;0.40;;;9.70;99.90;;;;;;4998987;28;20117;-71
2022/09/27 03:19:08;;;;;;;1.25;0.20;;;10.00;99.90;;;;;;4999979;28;20038;-70
2022/09/27 03:21:34;;;;;;;1.60;0.30;;;10.10;99.90;;;;;;5000237;28;20050;-71
2022/09/27 03:24:00;;;;;;;2.30;0.40;;;9.80;99.90;;;;;;5000017;28;20053;-72
2022/09/27 03:26:26;;;;;;;2.17;0.22;;;9.70;99.90;;;;;;4999090;28;20046;-71
2022/09/27 03:28:52;;;;;;;1.65;0.25;;;10.00;99.90;;;;;;4982964;28;20054;-70
2022/09/27 03:31:18;;;;;;;2.75;0.30;;;9.70;99.90;;;;;;5000028;28;20498;-70
2022/09/27 03:33:43;;;;;;;3.75;0.30;;;10.10;99.90;;;;;;4999317;28;20062;-70
2022/09/27 03:36:10;;;;;;;1.25;0.20;;;9.90;99.90;;;;;;4998551;28;20077;-70
2022/09/27 03:38:36;;;;;;;3.17;0.28;;;9.50;99.90;;;;;;4999900;28;20057;-71
2022/09/27 03:41:03;;;;;;;2.17;0.35;;;9.70;99.90;;;;;;4996538;28;20042;-71
2022/09/27 03:43:28;;;;;;;0.65;0.20;;;9.90;99.90;;;;;;4996747;28;20101;-71
2022/09/27 03:45:54;;;;;;;2.63;0.30;;;9.50;99.90;;;;;;4995875;28;20042;-71
2022/09/27 03:48:20;;;;;;;2.25;0.30;;;9.80;99.90;;;;;;4995378;28;20050;-72
2022/09/27 03:50:45;;;;;;;2.72;0.30;;;9.60;99.90;;;;;;4995575;28;20056;-70
2022/09/27 03:53:11;;;;;;;2.80;0.40;;;9.60;99.90;;;;;;4996787;28;20126;-70
2022/09/27 03:55:37;;;;;;;3.78;0.40;;;9.70;99.90;;;;;;4996654;28;20057;-70
2022/09/27 03:58:02;;;;;;;2.72;0.30;;;9.60;99.90;;;;;;4995629;28;20053;-71
2022/09/27 04:00:31;;;;;;;2.17;0.50;;;9.80;99.90;;;;;;4996578;28;20085;-71
2022/09/27 04:02:57;;;;;;;2.75;0.60;;;9.50;99.90;;;;;;4994619;28;20054;-72
2022/09/27 04:05:24;;;;;;;1.58;0.30;;;9.50;99.90;;;;;;4996978;28;20270;-71
2022/09/27 04:07:49;;;;;;;2.67;0.32;;;9.60;99.90;;;;;;4996462;28;20112;-71
2022/09/27 04:10:15;;;;;;;2.67;0.35;;;9.80;99.90;;;;;;4996365;28;20125;-71
2022/09/27 04:12:42;;;;;;;2.17;0.30;;;9.60;99.90;;;;;;4996220;28;20042;-71
2022/09/27 04:15:08;;;;;;;1.50;0.20;;;9.70;99.90;;;;;;4996219;28;20073;-71
2022/09/27 04:17:34;;;;;;;1.83;0.20;;;9.60;99.90;;;;;;4996251;28;20053;-71
2022/09/27 04:20:02;;;;;;;1.67;0.40;;;9.50;99.90;;;;;;4995242;28;20046;-70
2022/09/27 04:22:29;;;;;;;1.13;0.22;;;9.80;99.90;;;;;;4996076;28;20057;-70
2022/09/27 04:24:54;;;;;;;2.33;0.40;;;9.80;99.90;;;;;;4996090;28;20047;-71
2022/09/27 04:27:21;;;;;;;2.20;0.40;;;9.60;99.90;;;;;;4996002;28;20081;-70
2022/09/27 04:29:47;;;;;;;1.55;0.65;;;9.70;99.90;;;;;;4995940;28;20046;-69
2022/09/27 04:32:13;;;;;;;1.20;0.30;;;9.60;99.90;;;;;;4995576;28;20089;-71
2022/09/27 04:37:24;;;;;;;0.63;0.20;;;9.90;99.90;;;;;;4994828;28;20116;-69
2022/09/27 04:39:49;;;;;;;2.15;0.40;;;9.50;99.90;;;;;;4995961;28;20050;-71
2022/09/27 04:42:16;;;;;;;0.80;0.30;;;9.60;99.90;;;;;;4994611;28;20050;-69
2022/09/27 04:44:41;;;;;;;0.73;0.38;;;9.60;99.90;;;;;;4994511;28;20137;-71
2022/09/27 04:47:07;;;;;;;2.95;0.50;;;9.60;99.90;;;;;;4995048;28;20136;-71
2022/09/27 04:49:34;;;;;;;1.65;0.30;;;9.60;99.90;;;;;;4995584;28;20112;-71
2022/09/27 04:52:00;;;;;;;3.33;0.40;;;9.60;99.90;;;;;;4995344;28;20053;-70
2022/09/27 04:54:26;;;;;;;2.40;0.30;;;9.40;99.90;;;;;;4995496;28;20086;-70
2022/09/27 04:56:51;;;;;;;3.13;0.35;;;9.30;99.90;;;;;;4995379;28;20081;-70
2022/09/27 04:59:17;;;;;;;1.10;0.20;;;9.40;99.90;;;;;;4994164;28;20046;-69
2022/09/27 05:01:44;;;;;;;1.83;0.40;;;9.40;99.90;;;;;;4995377;28;20494;-71
2022/09/27 05:04:09;;;;;;;2.40;0.43;;;10.30;99.90;;;;;;4995092;28;20075;-71
2022/09/27 05:06:35;;;;;;;1.85;0.30;;;9.40;99.90;;;;;;4995168;28;20162;-70
2022/09/27 05:09:02;;;;;;;2.50;0.30;;;9.40;99.90;;;;;;4995412;28;20058;-71
2022/09/27 05:11:27;;;;;;;3.00;0.30;;;9.50;99.90;;;;;;4995131;28;20446;-70
2022/09/27 05:13:53;;;;;;;3.17;0.40;;;9.40;99.90;;;;;;4985814;28;20057;-71
2022/09/27 05:16:19;;;;;;;2.45;0.20;;;9.50;99.90;;;;;;4984528;28;20050;-71
2022/09/27 05:18:45;;;;;;;1.95;0.20;;;9.50;99.90;;;;;;4984410;28;20058;-70
2022/09/27 05:21:11;;;;;;;1.77;0.20;;;9.50;99.90;;;;;;4984835;28;20034;-70
2022/09/27 05:23:37;;;;;;;2.45;0.30;;;9.70;99.90;;;;;;4985703;28;20123;-71
2022/09/27 05:26:04;;;;;;;1.02;0.30;;;10.20;99.90;;;;;;4982897;28;20050;-71
2022/09/27 05:28:30;;;;;;;2.63;0.40;;;9.40;99.90;;;;;;4983575;28;20042;-69
2022/09/27 05:30:56;;;;;;;3.83;0.30;;;9.70;99.90;;;;;;4984515;28;20470;-71
2022/09/27 05:33:22;;;;;;;2.28;0.25;;;9.50;99.90;;;;;;4979737;28;20065;-70
2022/09/27 05:35:55;;;;;;;2.05;0.20;;;9.50;99.90;;;;;;4975308;28;20133;-70
2022/09/27 05:38:22;;;;;;;4.43;0.30;;;9.30;99.90;;;;;;4975318;28;20061;-70
2022/09/27 05:40:49;;;;;;;2.30;0.30;;;9.40;99.90;;;;;;4975099;28;20050;-70
2022/09/27 05:43:16;;;;;;;2.58;0.30;;;9.60;99.90;;;;;;4974931;28;20141;-70
2022/09/27 05:45:43;;;;;;;3.25;0.25;;;9.50;99.90;;;;;;4975289;28;20094;-69
2022/09/27 05:48:11;;;;;;;2.40;0.40;;;9.40;99.90;;;;;;4975231;28;20138;-69
2022/09/27 05:50:37;;;;;;;2.42;0.20;;;9.70;99.90;;;;;;4974486;28;20050;-70
2022/09/27 05:53:03;;;;;;;3.65;0.45;;;9.40;99.90;;;;;;4975181;28;20058;-70
2022/09/27 05:55:29;;;;;;;0.93;0.20;;;9.60;99.90;;;;;;4974913;28;20054;-71
2022/09/27 05:58:03;;;;;;;1.77;0.20;;;9.40;99.90;;;;;;4974785;28;20566;-71
2022/09/27 06:00:30;;;;;;;1.30;0.20;;;9.60;99.90;;;;;;4975040;28;20049;-71
2022/09/27 06:02:57;;;;;;;1.48;0.28;;;9.40;99.90;;;;;;4972818;28;20089;-70
2022/09/27 06:05:24;;;;;;;2.53;0.40;;;9.50;99.90;;;;;;4974875;28;20055;-70
2022/09/27 06:07:51;;;;;;;1.17;0.22;;;10.10;99.90;;;;;;4973624;28;20051;-69
2022/09/27 06:10:18;;;;;;;0.88;0.20;;;9.50;99.90;;;;;;4973489;28;20047;-71
2022/09/27 06:12:44;;;;;;;1.85;0.30;;;9.40;99.90;;;;;;4974892;28;20039;-70
2022/09/27 06:15:11;;;;;;;1.00;0.10;;;9.40;99.90;;;;;;4973620;28;20399;-69
2022/09/27 06:17:37;;;;;;;3.03;0.20;;;9.60;99.90;;;;;;4974592;28;20078;-69
2022/09/27 06:20:03;;;;;;;1.85;0.20;;;9.50;99.90;;;;;;4973694;28;20059;-71
2022/09/27 06:22:29;;;;;;;1.20;0.20;;;9.50;99.90;;;;;;4974509;28;20050;-71
2022/09/27 06:24:54;;;;;;;2.55;0.30;;;9.40;99.90;;;;;;4973199;28;20050;-71
2022/09/27 06:27:20;;;;;;;1.55;0.20;;;9.50;99.90;;;;;;4973632;28;20479;-71
2022/09/27 06:29:46;;;;;;;0.38;0.10;;;9.90;99.90;;;;;;4974703;28;20062;-70
2022/09/27 06:32:12;;;;;;;1.30;0.63;;;9.40;99.90;;;;;;4974747;28;20047;-70
2022/09/27 06:34:38;;;;;;;1.77;0.20;;;9.50;99.90;;;;;;4974077;28;20102;-71
2022/09/27 06:37:04;;;;;;;1.23;0.17;;;10.00;99.90;;;;;;4973515;28;20132;-71
2022/09/27 06:39:32;;;;;;;1.75;0.22;;;9.90;99.90;;;;;;4974234;28;20539;-71
2022/09/27 06:41:58;;;;;;;1.85;0.20;;;9.60;99.90;;;;;;4975218;28;20054;-69
2022/09/27 06:44:24;;;;;;;1.67;0.38;;;9.50;99.90;;;;;;4973696;28;20058;-69
2022/09/27 06:46:51;;;;;;;1.88;0.40;;;9.80;99.90;;;;;;4974453;28;20057;-70
2022/09/27 06:49:18;;;;;;;3.13;0.30;;;9.60;99.90;;;;;;4974368;28;20080;-70
2022/09/27 06:51:44;;;;;;;1.25;0.20;;;9.60;99.90;;;;;;4974358;28;20047;-69
2022/09/27 06:54:10;;;;;;;2.35;0.40;;;9.70;99.90;;;;;;4974122;28;20062;-70
2022/09/27 06:56:36;;;;;;;1.33;0.25;;;9.70;99.90;;;;;;4941467;28;20050;-71
2022/09/27 07:01:46;;;;;;;1.63;0.25;;;9.80;99.90;;;;;;4974207;28;20054;-70
2022/09/27 07:04:12;;;;;;;3.20;0.40;;;9.60;99.90;;;;;;4972622;28;20053;-70
2022/09/27 07:06:37;;;;;;;1.85;0.20;;;9.80;99.90;;;;;;4974026;28;20055;-71
2022/09/27 07:09:05;;;;;;;2.45;0.22;;;9.80;99.90;;;;;;4974127;28;20486;-70
2022/09/27 07:11:35;;;;;;;1.45;0.30;;;9.70;99.90;;;;;;4974027;28;20061;-69
2022/09/27 07:14:04;;;;;;;1.40;0.30;;;9.70;99.90;;;;;;4992813;28;20055;-70
2022/09/27 07:16:30;;;;;;;2.97;0.28;;;9.90;99.90;;;;;;4997065;28;20058;-70
2022/09/27 07:18:59;;;;;;;1.60;0.50;;;10.10;99.90;;;;;;4995990;28;20050;-72
2022/09/27 07:21:25;;;;;;;3.60;0.50;;;10.00;99.90;;;;;;4996869;28;20050;-70
2022/09/27 07:23:51;;;;;;;3.40;0.40;;;9.80;99.90;;;;;;4995848;28;20043;-71
2022/09/27 07:26:17;;;;;;;1.48;0.50;;;10.00;99.90;;;;;;4996060;28;20129;-70
2022/09/27 07:28:44;;;;;;;4.05;0.40;;;9.70;99.90;;;;;;4979864;28;20137;-69
2022/09/27 07:31:11;;;;;;;2.78;0.40;;;9.80;99.90;;;;;;4997022;28;20097;-69
2022/09/27 07:33:37;;;;;;;3.25;0.45;;;10.00;99.90;;;;;;4995209;28;20513;-71
2022/09/27 07:36:07;;;;;;;2.40;0.30;;;10.20;99.90;;;;;;4986999;28;20059;-69
2022/09/27 07:38:32;;;;;;;3.67;0.40;;;9.90;99.90;;;;;;4977560;28;20047;-69
2022/09/27 07:41:04;;;;;;;0.60;0.30;;;9.90;99.90;;;;;;4977873;28;20463;-69
2022/09/27 07:43:29;;;;;;;3.17;0.50;;;9.90;99.90;;;;;;4977671;28;20181;-68
2022/09/27 07:45:55;;;;;;;2.08;0.30;;;9.90;99.90;;;;;;4977520;28;20490;-69
2022/09/27 07:48:21;;;;;;;3.97;0.50;;;9.80;99.90;;;;;;4975831;28;20054;-71
2022/09/27 07:50:47;;;;;;;1.20;0.28;;;9.90;99.90;;;;;;4977408;28;20053;-71
2022/09/27 07:53:12;;;;;;;2.33;0.30;;;9.90;99.90;;;;;;4977336;28;20046;-70
2022/09/27 07:55:39;;;;;;;1.05;0.30;;;10.00;99.90;;;;;;4977184;28;20046;-70
2022/09/27 07:58:07;;;;;;;2.80;0.40;;;10.00;99.90;;;;;;4977081;28;20101;-71
2022/09/27 08:00:35;;;;;;;1.63;0.40;;;10.10;99.90;;;;;;4977120;28;20071;-70
2022/09/27 08:03:06;;;;;;;1.67;0.40;;;9.90;99.90;;;;;;4976190;28;20082;-71
2022/09/27 08:05:33;;;;;;;1.55;0.38;;;10.00;99.90;;;;;;4976109;28;20042;-71
2022/09/27 08:07:59;;;;;;;1.58;0.40;;;9.90;99.90;;;;;;4977068;28;20121;-71
2022/09/27 08:10:30;;;;;;;5.25;0.70;;;10.00;99.90;;;;;;4976751;28;20061;-73
2022/09/27 08:13:05;;;;;;;3.22;0.40;;;9.90;99.90;;;;;;4976737;28;20043;-69
2022/09/27 08:15:31;;;;;;;1.30;0.40;;;10.00;99.90;;;;;;4959647;28;20402;-70
2022/09/27 08:17:57;;;;;;;1.80;0.32;;;10.00;99.90;;;;;;4976926;28;20050;-70
2022/09/27 08:20:23;;;;;;;4.15;0.93;;;10.10;99.90;;;;;;4975876;28;20050;-69
2022/09/27 08:22:49;;;;;;;2.90;0.40;;;10.00;99.90;;;;;;4976665;28;20070;-69
2022/09/27 08:25:14;;;;;;;3.88;0.40;;;10.10;99.90;;;;;;4976773;28;20054;-68
2022/09/27 08:27:41;;;;;;;2.70;0.30;;;10.40;99.90;;;;;;4975972;28;20112;-69
2022/09/27 08:30:07;;;;;;;2.20;0.35;;;10.10;99.90;;;;;;4982519;28;20081;-69
2022/09/27 08:32:33;;;;;;;3.38;0.40;;;10.30;99.90;;;;;;4984280;28;20058;-69
2022/09/27 08:34:58;;;;;;;0.52;0.30;;;10.30;99.90;;;;;;4986308;28;20490;-69
2022/09/27 08:37:25;;;;;;;2.90;0.40;;;10.20;99.90;;;;;;4985115;28;20053;-69
2022/09/27 08:39:50;;;;;;;3.35;0.30;;;10.60;99.90;;;;;;4984486;28;20116;-69
2022/09/27 08:42:35;;;;;;;2.63;0.40;;;10.30;99.90;;;;;;4985430;28;20132;-69
2022/09/27 08:45:20;;;;;;;1.50;0.55;;;10.50;99.90;;;;;;4987320;28;20462;-70
2022/09/27 08:47:50;;;;;;;3.78;0.38;;;10.40;99.90;;;;;;4986741;28;20089;-69
2022/09/27 08:50:27;;;;;;;1.20;0.30;;;10.50;99.90;;;;;;4986351;28;20049;-69
2022/09/27 08:53:30;;;;;;;2.80;0.30;;;10.70;99.90;;;;;;4969030;28;20415;-70
2022/09/27 08:56:01;;;;;;;2.03;0.30;;;10.60;99.90;;;;;;4986487;28;20042;-70
2022/09/27 08:58:36;;;;;;;3.13;0.22;;;10.60;99.90;;;;;;4985242;28;20126;-70
2022/09/27 09:01:07;;;;;;;2.45;0.20;;;10.70;99.90;;;;;;4986383;28;20073;-69
2022/09/27 09:03:38;;;;;;;0.93;0.30;;;10.80;99.90;;;;;;4984351;28;20051;-68
2022/09/27 09:06:15;;;;;;;4.10;0.85;;;10.90;99.90;;;;;;4985345;28;20050;-69
2022/09/27 09:08:47;;;;;;;1.55;0.22;;;10.70;99.90;;;;;;4986019;28;20553;-69
2022/09/27 09:14:21;;;;;;;0.88;0.30;;;10.90;99.90;;;;;;4985128;28;20059;-70
2022/09/27 09:16:52;;;;;;;0.90;0.20;;;10.90;99.90;;;;;;4985344;28;20065;-69
2022/09/27 09:19:56;;;;;;;1.13;0.20;;;11.00;99.90;;;;;;4985824;28;20042;-69
2022/09/27 09:22:37;;;;;;;2.47;0.30;;;11.00;99.90;;;;;;4975849;28;20498;-69
2022/09/27 09:25:21;;;;;;;0.80;0.20;;;11.00;99.90;;;;;;4985895;28;20125;-69
2022/09/27 09:28:08;;;;;;;2.20;0.25;;;11.20;99.90;;;;;;4985995;28;20046;-69
2022/09/27 09:30:45;;;;;;;1.27;0.20;;;11.10;99.90;;;;;;4984739;28;20085;-70
2022/09/27 09:33:14;;;;;;;0.60;0.20;;;11.10;99.90;;;;;;4985321;28;20129;-69
2022/09/27 09:35:42;;;;;;;1.90;0.40;;;11.10;99.90;;;;;;4985731;28;20125;-79
2022/09/27 09:38:20;;;;;;;1.10;0.20;;;11.00;99.90;;;;;;4982590;28;20070;-68
2022/09/27 09:40:51;;;;;;;1.48;0.30;;;11.00;99.90;;;;;;4983545;28;20043;-70
2022/09/27 09:43:34;;;;;;;1.58;0.17;;;11.10;99.90;;;;;;4982859;28;20053;-71
2022/09/27 09:46:11;;;;;;;0.38;0.10;;;11.10;99.90;;;;;;4985252;28;20442;-69
2022/09/27 09:48:57;;;;;;;0.82;0.10;;;11.10;99.90;;;;;;4985253;28;20073;-70
2022/09/27 09:51:34;;;;;;;2.78;0.20;;;11.30;99.90;;;;;;4985886;28;20081;-70
2022/09/27 09:54:18;;;;;;;0.85;0.10;;;11.50;99.90;;;;;;4985480;28;20042;-69
2022/09/27 09:56:52;;;;;;;1.63;0.10;;;11.40;99.90;;;;;;4983794;28;20034;-70
2022/09/27 09:59:28;;;;;;;1.42;0.10;;;11.50;99.90;;;;;;4984339;28;20065;-71
2022/09/27 10:02:01;;;;;;;0.35;0.10;;;11.60;99.90;;;;;;4984464;28;20078;-70
2022/09/27 10:04:28;;;;;;;0.20;0.10;;;11.80;99.90;;;;;;4984554;28;20402;-70
2022/09/27 10:06:56;;;;;;;0.80;0.13;;;11.60;99.90;;;;;;4984652;28;20101;-68
2022/09/27 10:09:26;;;;;;;1.60;0.20;;;11.70;99.90;;;;;;4985323;28;20073;-70
2022/09/27 10:11:52;;;;;;;1.48;0.43;;;11.60;99.90;;;;;;4983071;28;20046;-70
2022/09/27 10:14:20;;;;;;;1.17;0.22;;;11.70;99.90;;;;;;4982707;28;20042;-69
2022/09/27 10:16:51;;;;;;;0.40;0.20;;;11.70;99.90;;;;;;4984288;28;20549;-70
2022/09/27 10:19:25;;;;;;;3.83;0.30;;;12.00;99.90;;;;;;4983846;28;20085;-69
2022/09/27 10:21:52;;;;;;;2.13;0.20;;;11.90;99.90;;;;;;4983828;28;20054;-68
2022/09/27 10:24:18;;;;;;;0.82;0.10;;;11.80;99.90;;;;;;4984456;28;20045;-71
2022/09/27 10:26:47;;;;;;;3.30;0.20;;;11.90;99.90;;;;;;4983236;28;20122;-70
2022/09/27 10:29:18;;;;;;;0.88;0.17;;;11.90;99.90;;;;;;4983469;28;20069;-71
2022/09/27 10:31:46;;;;;;;1.88;0.43;;;11.80;99.90;;;;;;4984571;28;20070;-69
2022/09/27 10:34:25;;;;;;;0.35;0.10;;;11.80;99.90;;;;;;4983087;28;20057;-69
2022/09/27 10:37:10;;;;;;;0.93;0.20;;;11.70;99.90;;;;;;4984770;28;20052;-68
2022/09/27 10:39:37;;;;;;;0.73;0.10;;;11.70;99.90;;;;;;4983887;28;20092;-71
2022/09/27 10:42:34;;;;;;;0.10;0.00;;;11.60;99.90;;;;;;4983614;28;20082;-71
2022/09/27 10:45:24;;;;;;;0.20;0.00;;;11.60;99.90;;;;;;4984926;28;20043;-70
2022/09/27 10:47:50;;;;;;;1.35;0.10;;;11.50;99.90;;;;;;4984265;28;20049;-71
2022/09/27 10:50:28;;;;;;;0.47;0.10;;;11.60;99.90;;;;;;4986212;28;20043;-74
2022/09/27 10:53:14;;;;;;;0.30;0.10;;;11.30;99.90;;;;;;4987722;28;20461;-69
2022/09/27 10:55:42;;;;;;;0.95;0.10;;;11.40;99.90;;;;;;4987942;28;20130;-69
2022/09/27 10:58:19;;;;;;;0.30;0.10;;;11.30;99.90;;;;;;4986312;28;20045;-69
2022/09/27 11:01:02;;;;;;;1.10;0.10;;;11.20;99.90;;;;;;4988341;28;20076;-69
2022/09/27 11:03:30;;;;;;;0.40;0.10;;;11.20;99.90;;;;;;4988024;28;20046;-69
2022/09/27 11:05:58;;;;;;;0.65;0.10;;;11.10;99.90;;;;;;4985628;28;20070;-70
2022/09/27 11:08:29;;;;;;;1.35;0.60;;;11.30;99.90;;;;;;4987292;28;20057;-70
2022/09/27 11:11:13;;;;;;;1.67;0.20;;;11.10;99.90;;;;;;4986368;28;20063;-70
2022/09/27 11:13:40;;;;;;;0.40;0.20;;;11.30;99.90;;;;;;4988517;28;20042;-71
2022/09/27 11:16:30;;;;;;;0.90;0.30;;;11.00;99.90;;;;;;4970441;28;20050;-71
2022/09/27 11:19:16;;;;;;;2.03;0.20;;;11.00;99.90;;;;;;4988165;28;20490;-71
2022/09/27 11:22:07;;;;;;;1.50;0.30;;;11.00;99.90;;;;;;4988660;28;20387;-72
2022/09/27 11:25:17;;;;;;;2.05;0.30;;;11.10;99.90;;;;;;4987841;28;20550;-67
2022/09/27 11:28:21;;;;;;;0.80;0.20;;;11.30;99.90;;;;;;4967767;28;20418;-71
2022/09/27 11:31:04;;;;;;;0.88;0.30;;;11.00;99.90;;;;;;4988389;28;20046;-70
2022/09/27 11:33:40;;;;;;;0.85;0.40;;;11.10;99.90;;;;;;4986221;28;20050;-72
2022/09/27 11:36:37;;;;;;;0.95;0.20;;;11.20;99.90;;;;;;4986678;28;20054;-71
2022/09/27 11:39:20;;;;;;;1.25;0.10;;;11.20;99.90;;;;;;4987645;28;20050;-68
2022/09/27 11:42:16;;;;;;;2.77;0.20;;;11.30;99.90;;;;;;4992911;28;20039;-72
2022/09/27 11:44:57;;;;;;;1.08;0.15;;;11.40;99.90;;;;;;4988231;28;20286;-69
2022/09/27 11:47:40;;;;;;;2.35;0.20;;;11.60;99.90;;;;;;4985084;28;20057;-70
2022/09/27 11:50:09;;;;;;;1.02;0.13;;;11.50;99.90;;;;;;4993228;28;20077;-69
2022/09/27 11:53:02;;;;;;;0.68;0.20;;;11.60;99.90;;;;;;4985800;28;20065;-69
2022/09/27 11:55:49;;;;;;;0.70;0.10;;;11.80;99.90;;;;;;4987094;28;20074;-69
2022/09/27 11:58:25;;;;;;;0.55;0.10;;;11.90;99.90;;;;;;4987469;28;20054;-69
2022/09/27 12:01:11;;;;;;;0.08;0.05;;;12.00;99.90;;;;;;4986204;28;20039;-70
2022/09/27 12:03:52;;;;;;;0.77;0.20;;;12.40;99.90;;;;;;4988234;28;20134;-68
2022/09/27 12:06:39;;;;;;;0.25;0.00;;;12.10;99.90;;;;;;4987609;28;20141;-68
2022/09/27 12:09:23;;;;;;;1.00;0.10;;;12.30;99.90;;;;;;4988471;28;20398;-69
2022/09/27 12:11:58;;;;;;;0.47;0.10;;;12.30;99.90;;;;;;4988377;28;20047;-68
2022/09/27 12:14:44;;;;;;;0.82;0.20;;;12.30;99.90;;;;;;4987141;28;20046;-68
2022/09/27 12:17:19;;;;;;;2.63;0.10;;;12.40;99.90;;;;;;4987027;28;20061;-68
2022/09/27 12:19:57;;;;;;;0.35;0.10;;;12.30;99.90;;;;;;4986990;28;20058;-70
2022/09/27 12:22:49;;;;;;;0.45;0.00;;;12.40;99.90;;;;;;4978707;28;20110;-69
2022/09/27 12:25:17;;;;;;;2.25;0.20;;;12.50;99.90;;;;;;4987398;28;20038;-70
2022/09/27 12:27:48;;;;;;;1.75;0.10;;;12.30;99.90;;;;;;4986873;28;20058;-69
2022/09/27 12:30:14;;;;;;;0.45;0.10;;;12.30;99.90;;;;;;4986550;28;20042;-69
2022/09/27 12:33:06;;;;;;;0.90;0.10;;;12.20;99.90;;;;;;4990372;28;20054;-68
2022/09/27 12:35:38;;;;;;;0.13;0.10;;;12.20;99.90;;;;;;4986580;28;20104;-68
2022/09/27 12:38:12;;;;;;;1.75;0.20;;;12.50;99.90;;;;;;4971119;28;20072;-69
2022/09/27 12:40:46;;;;;;;0.90;0.20;;;12.20;99.90;;;;;;4990439;28;20046;-69
2022/09/27 12:43:26;;;;;;;0.35;0.10;;;12.10;99.90;;;;;;4989868;28;20578;-69
2022/09/27 12:46:21;;;;;;;0.73;0.20;;;12.00;99.90;;;;;;4990059;28;20070;-68
2022/09/27 12:49:04;;;;;;;1.30;0.15;;;11.90;99.90;;;;;;4989950;28;20054;-70
2022/09/27 12:51:54;;;;;;;0.80;0.10;;;11.80;99.90;;;;;;4989505;28;20054;-70
2022/09/27 12:54:41;;;;;;;0.70;0.10;;;11.90;99.90;;;;;;4988855;28;20104;-69
2022/09/27 12:57:19;;;;;;;0.10;0.00;;;11.90;99.90;;;;;;4989748;28;20047;-69
2022/09/27 12:59:53;;;;;;;0.10;0.00;;;11.90;99.90;;;;;;4989886;28;20042;-70
2022/09/27 13:02:25;;;;;;;1.08;0.00;;;11.90;99.90;;;;;;4983854;28;20395;-70
2022/09/27 13:05:17;;;;;;;0.60;0.10;;;11.80;99.90;;;;;;4980998;28;20043;-69
2022/09/27 13:07:53;;;;;;;0.10;0.10;;;11.90;99.90;;;;;;4984786;28;20042;-70
2022/09/27 13:10:53;;;;;;;1.35;0.10;;;11.90;99.90;;;;;;4985426;28;20038;-70
2022/09/27 13:13:25;;;;;;;0.10;0.00;;;11.80;99.90;;;;;;4987274;28;20048;-70
2022/09/27 13:15:56;;;;;;;0.57;0.00;;;12.00;99.90;;;;;;4986785;28;20125;-72
2022/09/27 13:18:28;;;;;;;0.40;0.10;;;11.90;99.90;;;;;;4984981;28;20398;-70
2022/09/27 13:20:54;;;;;;;0.20;0.00;;;12.00;99.90;;;;;;4984031;28;20042;-70
2022/09/27 13:23:20;;;;;;;0.52;0.20;;;12.10;99.90;;;;;;4984962;28;20547;-69
2022/09/27 13:25:59;;;;;;;0.00;0.00;;;12.10;99.90;;;;;;4985180;28;20078;-69
2022/09/27 13:28:31;;;;;;;0.43;0.08;;;12.10;99.90;;;;;;4984650;28;20042;-69
2022/09/27 13:30:57;;;;;;;0.28;0.10;;;11.80;99.90;;;;;;4986018;28;20049;-71
2022/09/27 13:33:32;;;;;;;0.10;0.00;;;11.80;99.90;;;;;;4985156;28;20065;-69
2022/09/27 13:36:18;;;;;;;0.00;0.00;;;11.80;99.90;;;;;;4986270;28;20498;-69
2022/09/27 13:39:13;;;;;;;0.00;0.00;;;11.70;99.90;;;;;;4984234;28;20043;-72
2022/09/27 13:41:44;;;;;;;0.17;0.10;;;11.70;99.90;;;;;;4984583;28;20077;-70